createdAt,value
2018-11-26T00:00:17.477Z,14.60
2018-11-26T00:02:45.555Z,15.75
2018-11-26T00:05:13.620Z,15.27
2018-11-26T00:07:41.688Z,13.65
2018-11-26T00:10:21.112Z,14.90
2018-11-26T00:12:49.176Z,14.33
2018-11-26T00:15:17.232Z,15.50
2018-11-26T00:17:45.354Z,15.45
2018-11-26T00:20:13.396Z,14.93
2018-11-26T00:22:41.448Z,15.32
2018-11-26T00:25:09.196Z,16.25
2018-11-26T00:27:37.309Z,15.77
2018-11-26T00:30:06.596Z,14.40
2018-11-26T00:32:34.673Z,16.00
2018-11-26T00:35:02.768Z,13.33
2018-11-26T00:37:30.832Z,13.00
2018-11-26T00:39:58.920Z,14.77
2018-11-26T00:42:26.984Z,14.63
2018-11-26T00:44:55.078Z,15.30
2018-11-26T00:47:23.137Z,14.27
2018-11-26T00:49:51.192Z,12.23
2018-11-26T00:52:19.292Z,13.10
2018-11-26T00:54:47.363Z,14.13
2018-11-26T00:57:15.429Z,13.80
2018-11-26T00:59:43.537Z,13.10
2018-11-26T01:02:19.954Z,12.60
2018-11-26T01:04:48.066Z,12.63
2018-11-26T01:07:16.197Z,13.95
2018-11-26T01:09:44.278Z,12.63
2018-11-26T01:12:12.396Z,14.58
2018-11-26T01:14:40.489Z,13.13
2018-11-26T01:17:08.582Z,13.75
2018-11-26T01:19:36.697Z,13.60
2018-11-26T01:22:04.810Z,13.30
2018-11-26T01:24:32.925Z,14.63
2018-11-26T01:27:01.021Z,12.33
2018-11-26T01:29:29.125Z,14.70
2018-11-26T01:31:57.195Z,12.90
2018-11-26T01:34:25.302Z,13.85
2018-11-26T01:36:53.419Z,12.65
2018-11-26T01:39:21.494Z,14.90
2018-11-26T01:41:49.597Z,13.07
2018-11-26T01:44:17.689Z,12.90
2018-11-26T01:46:45.815Z,12.37
2018-11-26T01:49:13.934Z,13.40
2018-11-26T01:51:42.058Z,12.60
2018-11-26T01:54:10.153Z,13.30
2018-11-26T01:56:38.277Z,11.53
2018-11-26T01:59:06.419Z,13.37
2018-11-26T02:01:34.545Z,12.40
2018-11-26T02:04:02.689Z,13.13
2018-11-26T02:06:30.819Z,12.97
2018-11-26T02:08:58.913Z,12.97
2018-11-26T02:11:27.022Z,13.03
2018-11-26T02:13:55.143Z,14.60
2018-11-26T02:16:23.250Z,13.20
2018-11-26T02:18:51.487Z,14.00
2018-11-26T02:21:19.566Z,15.90
2018-11-26T02:23:47.665Z,13.07
2018-11-26T02:26:15.766Z,12.80
2018-11-26T02:28:43.892Z,12.63
2018-11-26T02:31:12.006Z,12.97
2018-11-26T02:33:40.691Z,13.20
2018-11-26T02:36:08.787Z,14.68
2018-11-26T02:38:36.917Z,14.15
2018-11-26T02:41:05.427Z,15.20
2018-11-26T02:43:33.550Z,15.40
2018-11-26T02:46:01.654Z,15.93
2018-11-26T02:48:29.773Z,14.60
2018-11-26T02:50:57.976Z,14.57
2018-11-26T02:53:26.098Z,15.47
2018-11-26T02:55:54.213Z,13.97
2018-11-26T02:58:22.339Z,13.93
2018-11-26T03:00:50.477Z,14.67
2018-11-26T03:03:18.585Z,15.10
2018-11-26T03:05:46.697Z,13.60
2018-11-26T03:08:14.818Z,16.00
2018-11-26T03:10:42.953Z,17.80
2018-11-26T03:13:11.074Z,16.00
2018-11-26T03:15:39.214Z,15.57
2018-11-26T03:18:07.305Z,15.10
2018-11-26T03:20:35.378Z,16.93
2018-11-26T03:23:03.503Z,16.65
2018-11-26T03:25:31.610Z,16.30
2018-11-26T03:27:59.725Z,15.80
2018-11-26T03:30:27.866Z,16.75
2018-11-26T03:32:55.981Z,15.35
2018-11-26T03:35:24.086Z,15.75
2018-11-26T03:37:52.193Z,15.37
2018-11-26T03:40:20.282Z,15.65
2018-11-26T03:42:48.380Z,15.90
2018-11-26T03:45:17.564Z,15.80
2018-11-26T03:47:45.695Z,16.55
2018-11-26T03:50:14.379Z,15.90
2018-11-26T03:52:44.063Z,17.67
2018-11-26T03:55:12.366Z,17.17
2018-11-26T03:57:40.449Z,14.63
2018-11-26T04:00:11.970Z,16.13
2018-11-26T04:02:40.063Z,17.13
2018-11-26T04:05:09.053Z,15.87
2018-11-26T04:07:37.157Z,14.40
2018-11-26T04:10:07.254Z,15.73
2018-11-26T04:12:35.391Z,15.77
2018-11-26T04:15:03.485Z,15.70
2018-11-26T04:17:31.620Z,15.07
2018-11-26T04:19:59.719Z,16.03
2018-11-26T04:22:27.831Z,15.10
2018-11-26T04:24:55.925Z,14.10
2018-11-26T04:27:24.059Z,14.77
2018-11-26T04:29:52.162Z,14.60
2018-11-26T04:32:20.279Z,14.03
2018-11-26T04:34:48.408Z,13.00
2018-11-26T04:37:16.563Z,13.47
2018-11-26T04:39:44.666Z,14.37
2018-11-26T04:42:12.768Z,11.83
2018-11-26T04:44:40.915Z,12.43
2018-11-26T04:47:09.001Z,11.70
2018-11-26T04:49:37.168Z,12.40
2018-11-26T04:52:05.576Z,10.50
2018-11-26T04:54:33.664Z,11.60
2018-11-26T04:57:01.774Z,10.70
2018-11-26T04:59:29.889Z,11.00
2018-11-26T05:01:57.972Z,10.80
2018-11-26T05:04:26.115Z,9.40
2018-11-26T05:06:54.202Z,9.23
2018-11-26T05:09:22.308Z,9.57
2018-11-26T05:11:50.393Z,9.87
2018-11-26T05:14:18.566Z,9.15
2018-11-26T05:16:46.682Z,10.08
2018-11-26T05:19:14.786Z,9.13
2018-11-26T05:21:42.881Z,9.70
2018-11-26T05:24:11.000Z,8.40
2018-11-26T05:26:39.084Z,9.00
2018-11-26T05:29:07.173Z,9.45
2018-11-26T05:31:35.280Z,9.07
2018-11-26T05:34:03.372Z,8.68
2018-11-26T05:36:31.566Z,8.73
2018-11-26T05:38:59.654Z,8.47
2018-11-26T05:41:27.790Z,8.67
2018-11-26T05:43:56.107Z,8.48
2018-11-26T05:46:24.281Z,6.70
2018-11-26T05:48:52.416Z,8.23
2018-11-26T05:51:20.512Z,7.73
2018-11-26T05:53:48.610Z,7.05
2018-11-26T05:56:16.770Z,6.33
2018-11-26T05:58:44.882Z,7.83
2018-11-26T06:01:12.986Z,8.90
2018-11-26T06:03:41.917Z,7.20
2018-11-26T06:06:10.073Z,7.75
2018-11-26T06:08:38.157Z,7.67
2018-11-26T06:11:06.257Z,7.28
2018-11-26T06:13:34.358Z,7.00
2018-11-26T06:16:02.497Z,6.62
2018-11-26T06:18:30.611Z,7.30
2018-11-26T06:20:58.690Z,6.87
2018-11-26T06:23:26.834Z,7.30
2018-11-26T06:25:54.904Z,5.80
2018-11-26T06:28:23.047Z,7.87
2018-11-26T06:30:51.129Z,6.58
2018-11-26T06:33:19.242Z,6.25
2018-11-26T06:35:47.338Z,6.20
2018-11-26T06:38:15.434Z,6.03
2018-11-26T06:40:43.517Z,6.70
2018-11-26T06:43:11.614Z,5.93
2018-11-26T06:45:39.734Z,6.40
2018-11-26T06:48:07.840Z,6.50
2018-11-26T06:50:35.933Z,5.63
2018-11-26T06:53:04.072Z,5.70
2018-11-26T06:55:32.188Z,6.20
2018-11-26T06:58:00.270Z,5.90
2018-11-26T07:00:28.369Z,5.67
2018-11-26T07:02:56.490Z,6.00
2018-11-26T07:05:24.607Z,5.12
2018-11-26T07:07:52.773Z,5.10
2018-11-26T07:10:21.714Z,5.80
2018-11-26T07:12:49.858Z,6.47
2018-11-26T07:15:20.691Z,5.97
2018-11-26T07:17:49.589Z,5.80
2018-11-26T07:20:18.695Z,5.22
2018-11-26T07:22:46.789Z,5.12
2018-11-26T07:25:15.970Z,4.60
2018-11-26T07:27:45.282Z,5.50
2018-11-26T07:30:16.485Z,5.83
2018-11-26T07:32:44.729Z,5.50
2018-11-26T07:35:13.394Z,5.20
2018-11-26T07:37:41.611Z,4.97
2018-11-26T07:40:12.632Z,4.97
2018-11-26T07:42:43.164Z,4.80
2018-11-26T07:45:12.507Z,4.37
2018-11-26T07:47:41.340Z,5.30
2018-11-26T07:50:11.997Z,5.03
2018-11-26T07:52:40.118Z,4.70
2018-11-26T07:55:10.126Z,5.10
2018-11-26T07:57:38.958Z,4.90
2018-11-26T08:00:17.280Z,5.07
2018-11-26T08:02:45.623Z,4.50
2018-11-26T08:05:14.813Z,5.27
2018-11-26T08:07:42.949Z,4.90
2018-11-26T08:10:12.247Z,5.13
2018-11-26T08:12:40.491Z,4.60
2018-11-26T08:15:10.782Z,5.20
2018-11-26T08:17:38.878Z,4.80
2018-11-26T08:20:07.987Z,4.03
2018-11-26T08:22:36.130Z,4.00
2018-11-26T08:25:05.121Z,4.27
2018-11-26T08:27:33.240Z,3.90
2018-11-26T08:30:01.355Z,3.97
2018-11-26T08:32:34.000Z,3.87
2018-11-26T08:34:57.598Z,3.80
2018-11-26T08:37:31.207Z,5.17
2018-11-26T08:40:04.681Z,3.43
2018-11-26T08:43:06.871Z,3.92
2018-11-26T08:45:36.894Z,4.00
2018-11-26T08:48:10.314Z,3.97
2018-11-26T08:50:38.841Z,3.30
2018-11-26T08:53:06.935Z,3.77
2018-11-26T08:55:34.985Z,3.58
2018-11-26T08:58:03.102Z,5.45
2018-11-26T09:00:31.204Z,3.07
2018-11-26T09:03:03.288Z,3.13
2018-11-26T09:05:36.896Z,3.20
2018-11-26T09:08:05.016Z,3.67
2018-11-26T09:10:33.106Z,3.83
2018-11-26T09:13:01.213Z,4.53
2018-11-26T09:15:29.377Z,3.53
2018-11-26T09:17:57.515Z,3.80
2018-11-26T09:20:25.614Z,4.12
2018-11-26T09:22:53.721Z,4.00
2018-11-26T09:25:21.832Z,4.30
2018-11-26T09:27:49.949Z,4.50
2018-11-26T09:30:18.047Z,4.15
2018-11-26T09:32:46.147Z,4.00
2018-11-26T09:35:15.554Z,4.63
2018-11-26T09:37:43.646Z,3.57
2018-11-26T09:40:16.017Z,3.57
2018-11-26T09:42:45.046Z,4.12
2018-11-26T09:45:17.267Z,3.70
2018-11-26T09:47:45.542Z,3.80
2018-11-26T09:50:16.010Z,4.78
2018-11-26T09:52:44.118Z,3.60
2018-11-26T09:55:12.953Z,2.83
2018-11-26T09:57:41.171Z,2.87
2018-11-26T10:00:17.061Z,3.37
2018-11-26T10:02:46.319Z,4.13
2018-11-26T10:05:15.824Z,3.00
2018-11-26T10:07:43.942Z,2.80
2018-11-26T10:10:12.683Z,2.63
2018-11-26T10:12:41.430Z,2.90
2018-11-26T10:15:14.659Z,3.23
2018-11-26T10:17:42.788Z,3.00
2018-11-26T10:20:11.417Z,2.90
2018-11-26T10:22:39.622Z,3.40
2018-11-26T10:25:11.869Z,3.00
2018-11-26T10:27:40.134Z,3.10
2018-11-26T10:30:10.582Z,2.83
2018-11-26T10:32:39.042Z,2.90
2018-11-26T10:35:08.679Z,3.10
2018-11-26T10:37:36.865Z,2.80
2018-11-26T10:40:11.816Z,2.87
2018-11-26T10:42:39.909Z,2.23
2018-11-26T10:45:10.505Z,3.05
2018-11-26T10:47:38.609Z,2.40
2018-11-26T10:50:10.562Z,3.50
2018-11-26T10:52:38.671Z,2.37
2018-11-26T10:55:23.898Z,3.03
2018-11-26T10:57:52.550Z,3.30
2018-11-26T11:00:26.071Z,2.42
2018-11-26T11:02:54.170Z,2.85
2018-11-26T11:05:22.267Z,3.17
2018-11-26T11:07:50.367Z,2.50
2018-11-26T11:10:34.141Z,2.50
2018-11-26T11:13:02.261Z,2.10
2018-11-26T11:15:30.334Z,2.70
2018-11-26T11:17:58.408Z,2.40
2018-11-26T11:20:27.795Z,2.20
2018-11-26T11:22:55.906Z,1.40
2018-11-26T11:25:24.310Z,1.40
2018-11-26T11:27:52.652Z,2.45
2018-11-26T11:30:25.642Z,1.37
2018-11-26T11:32:53.753Z,1.00
2018-11-26T11:35:21.879Z,1.55
2018-11-26T11:37:50.783Z,1.50
2018-11-26T11:40:19.779Z,1.40
2018-11-26T11:42:48.088Z,1.60
2018-11-26T11:45:16.240Z,2.70
2018-11-26T11:47:44.405Z,1.20
2018-11-26T11:50:13.361Z,1.32
2018-11-26T11:52:41.499Z,1.20
2018-11-26T11:55:25.737Z,1.33
2018-11-26T11:57:53.891Z,1.85
2018-11-26T12:00:30.914Z,1.80
2018-11-26T12:02:59.721Z,1.60
2018-11-26T12:05:27.870Z,1.47
2018-11-26T12:07:55.952Z,1.22
2018-11-26T12:10:24.035Z,1.40
2018-11-26T12:12:52.127Z,1.55
2018-11-26T12:15:20.423Z,1.73
2018-11-26T12:17:49.306Z,1.45
2018-11-26T12:20:17.423Z,1.85
2018-11-26T12:22:45.775Z,1.95
2018-11-26T12:25:16.996Z,1.70
2018-11-26T12:27:45.113Z,1.50
2018-11-26T12:30:19.336Z,1.37
2018-11-26T12:32:47.435Z,1.50
2018-11-26T12:35:15.599Z,1.13
2018-11-26T12:37:43.707Z,1.53
2018-11-26T12:40:14.047Z,1.30
2018-11-26T12:42:42.175Z,1.50
2018-11-26T12:45:27.412Z,0.93
2018-11-26T12:47:55.505Z,1.10
2018-11-26T12:50:23.681Z,1.50
2018-11-26T12:55:26.601Z,1.17
2018-11-26T12:57:55.563Z,1.53
2018-11-26T13:00:25.657Z,1.80
2018-11-26T13:02:54.930Z,1.63
2018-11-26T13:05:23.182Z,1.40
2018-11-26T13:07:51.344Z,1.10
2018-11-26T13:10:20.893Z,1.70
2018-11-26T13:12:49.671Z,1.47
2018-11-26T13:15:18.814Z,1.40
2018-11-26T13:17:46.955Z,1.60
2018-11-26T13:20:18.086Z,1.50
2018-11-26T13:22:46.187Z,1.40
2018-11-26T13:25:16.505Z,1.50
2018-11-26T13:27:46.227Z,1.37
2018-11-26T13:30:16.647Z,1.32
2018-11-26T13:32:46.178Z,1.60
2018-11-26T13:35:15.053Z,1.90
2018-11-26T13:37:43.131Z,1.70
2018-11-26T13:40:15.291Z,1.52
2018-11-26T13:42:43.475Z,1.47
2018-11-26T13:45:17.851Z,1.70
2018-11-26T13:47:46.004Z,6.17
2018-11-26T13:50:18.139Z,1.63
2018-11-26T13:52:46.251Z,8.13
2018-11-26T13:55:14.354Z,1.43
2018-11-26T13:57:42.440Z,2.03
2018-11-26T14:00:13.648Z,1.50
2018-11-26T14:02:41.827Z,2.20
2018-11-26T14:05:11.103Z,1.40
2018-11-26T14:07:39.251Z,1.90
2018-11-26T14:10:12.958Z,2.70
2018-11-26T14:12:42.328Z,1.95
2018-11-26T14:15:12.237Z,2.10
2018-11-26T14:17:40.403Z,1.50
2018-11-26T14:20:11.760Z,1.80
2018-11-26T14:22:39.943Z,1.53
2018-11-26T14:25:10.451Z,1.50
2018-11-26T14:27:38.567Z,2.27
2018-11-26T14:30:09.696Z,2.47
2018-11-26T14:32:37.797Z,1.67
2018-11-26T14:35:07.155Z,1.40
2018-11-26T14:37:35.248Z,1.70
2018-11-26T14:40:03.332Z,1.53
2018-11-26T14:42:31.413Z,2.13
2018-11-26T14:44:59.508Z,1.80
2018-11-26T14:47:27.612Z,1.37
2018-11-26T14:49:56.540Z,1.73
2018-11-26T14:52:24.696Z,1.77
2018-11-26T14:54:52.851Z,2.00
2018-11-26T14:57:20.927Z,1.87
2018-11-26T14:59:49.011Z,2.37
2018-11-26T15:02:17.085Z,2.52
2018-11-26T15:04:45.215Z,2.77
2018-11-26T15:07:13.330Z,2.10
2018-11-26T15:09:41.482Z,2.03
2018-11-26T15:12:09.596Z,2.00
2018-11-26T15:14:37.724Z,2.50
2018-11-26T15:17:05.825Z,2.20
2018-11-26T15:19:33.948Z,3.10
2018-11-26T15:22:02.043Z,1.90
2018-11-26T15:24:30.157Z,2.03
2018-11-26T15:26:58.252Z,2.00
2018-11-26T15:29:26.323Z,2.50
2018-11-26T15:34:18.907Z,3.10
2018-11-26T15:36:47.071Z,2.40
2018-11-26T15:39:15.190Z,2.40
2018-11-26T15:41:43.337Z,2.87
2018-11-26T15:44:11.475Z,2.30
2018-11-26T15:46:39.583Z,2.60
2018-11-26T15:49:07.679Z,2.23
2018-11-26T15:51:35.783Z,2.40
2018-11-26T15:54:03.872Z,2.25
2018-11-26T15:56:31.959Z,3.10
2018-11-26T15:59:00.086Z,2.27
2018-11-26T16:01:28.192Z,2.70
2018-11-26T16:03:56.300Z,3.77
2018-11-26T16:06:24.432Z,2.73
2018-11-26T16:08:52.528Z,2.50
2018-11-26T16:11:20.608Z,2.67
2018-11-26T16:13:48.721Z,3.40
2018-11-26T16:16:17.449Z,2.57
2018-11-26T16:18:52.159Z,3.13
2018-11-26T16:21:23.072Z,3.37
2018-11-26T16:23:51.387Z,2.22
2018-11-26T16:26:19.476Z,3.20
2018-11-26T16:28:47.603Z,3.53
2018-11-26T16:31:15.723Z,2.83
2018-11-26T16:33:43.812Z,3.42
2018-11-26T16:36:11.995Z,2.80
2018-11-26T16:38:40.082Z,3.50
2018-11-26T16:41:08.139Z,3.30
2018-11-26T16:43:36.256Z,3.05
2018-11-26T16:46:04.444Z,2.90
2018-11-26T16:48:32.545Z,2.90
2018-11-26T16:51:00.648Z,2.55
2018-11-26T16:53:28.781Z,2.70
2018-11-26T16:55:56.915Z,2.40
2018-11-26T16:58:25.064Z,2.47
2018-11-26T17:00:53.170Z,3.10
2018-11-26T17:03:21.417Z,2.87
2018-11-26T17:05:49.531Z,2.80
2018-11-26T17:08:17.652Z,2.43
2018-11-26T17:10:45.733Z,3.20
2018-11-26T17:13:14.524Z,2.30
2018-11-26T17:15:42.739Z,2.60
2018-11-26T17:18:10.865Z,2.95
2018-11-26T17:20:39.010Z,2.98
2018-11-26T17:23:07.810Z,3.15
2018-11-26T17:25:36.050Z,2.83
2018-11-26T17:28:04.298Z,2.77
2018-11-26T17:30:32.476Z,5.33
2018-11-26T17:33:02.279Z,6.60
2018-11-26T17:35:31.003Z,5.50
2018-11-26T17:37:59.270Z,7.57
2018-11-26T17:40:27.660Z,10.23
2018-11-26T17:42:56.179Z,12.43
2018-11-26T17:45:25.127Z,11.80
2018-11-26T17:47:58.491Z,21.17
2018-11-26T17:50:35.193Z,22.27
2018-11-26T17:53:03.403Z,17.30
2018-11-26T17:55:31.559Z,14.93
2018-11-26T17:57:59.748Z,13.00
2018-11-26T18:00:30.236Z,8.83
2018-11-26T18:02:58.392Z,13.50
2018-11-26T18:05:27.954Z,10.13
2018-11-26T18:07:58.916Z,8.17
2018-11-26T18:10:27.075Z,8.17
2018-11-26T18:12:55.264Z,7.20
2018-11-26T18:15:23.565Z,8.08
2018-11-26T18:17:51.755Z,8.30
2018-11-26T18:20:20.992Z,7.47
2018-11-26T18:22:50.642Z,7.67
2018-11-26T18:25:19.386Z,7.33
2018-11-26T18:27:59.502Z,7.80
2018-11-26T18:30:35.179Z,6.30
2018-11-26T18:33:03.325Z,6.10
2018-11-26T18:35:31.455Z,6.07
2018-11-26T18:37:59.613Z,6.80
2018-11-26T18:40:27.715Z,7.23
2018-11-26T18:42:55.821Z,5.70
2018-11-26T18:45:23.964Z,7.20
2018-11-26T18:47:52.126Z,5.70
2018-11-26T18:50:21.388Z,5.40
2018-11-26T18:52:50.685Z,4.97
2018-11-26T18:55:19.069Z,6.20
2018-11-26T18:57:47.222Z,5.33
2018-11-26T19:00:25.483Z,5.20
2018-11-26T19:02:54.323Z,4.30
2018-11-26T19:05:22.552Z,4.57
2018-11-26T19:07:51.069Z,4.23
2018-11-26T19:10:27.021Z,4.27
2018-11-26T19:13:04.717Z,4.30
2018-11-26T19:15:34.555Z,4.47
2018-11-26T19:18:08.548Z,3.40
2018-11-26T19:20:36.667Z,3.80
2018-11-26T19:23:05.023Z,4.20
2018-11-26T19:25:33.118Z,3.50
2018-11-26T19:28:01.235Z,3.50
2018-11-26T19:30:29.337Z,4.33
2018-11-26T19:32:57.429Z,3.60
2018-11-26T19:35:25.567Z,5.27
2018-11-26T19:37:53.670Z,4.05
2018-11-26T19:40:21.781Z,4.20
2018-11-26T19:42:49.902Z,4.05
2018-11-26T19:45:19.338Z,5.30
2018-11-26T19:47:47.521Z,4.50
2018-11-26T19:50:16.636Z,4.63
2018-11-26T19:52:45.538Z,4.33
2018-11-26T19:55:16.059Z,4.28
2018-11-26T19:57:44.167Z,4.43
2018-11-26T20:00:17.731Z,4.50
2018-11-26T20:02:47.528Z,4.23
2018-11-26T20:05:36.112Z,4.27
2018-11-26T20:08:04.236Z,4.30
2018-11-26T20:10:32.400Z,4.62
2018-11-26T20:13:00.582Z,4.10
2018-11-26T20:15:28.692Z,4.42
2018-11-26T20:17:59.102Z,5.03
2018-11-26T20:20:24.905Z,4.57
2018-11-26T20:22:53.801Z,5.00
2018-11-26T20:25:21.180Z,4.95
2018-11-26T20:27:49.287Z,4.50
2018-11-26T20:30:17.502Z,4.20
2018-11-26T20:32:47.130Z,4.17
2018-11-26T20:35:15.362Z,4.58
2018-11-26T20:37:43.536Z,5.00
2018-11-26T20:40:13.071Z,4.37
2018-11-26T20:42:47.172Z,4.30
2018-11-26T20:45:16.307Z,4.70
2018-11-26T20:47:45.373Z,5.30
2018-11-26T20:50:18.275Z,5.13
2018-11-26T20:52:46.387Z,5.40
2018-11-26T20:55:16.993Z,5.20
2018-11-26T20:57:45.135Z,5.10
2018-11-26T21:00:16.537Z,5.08
2018-11-26T21:02:45.212Z,5.55
2018-11-26T21:05:13.375Z,5.65
2018-11-26T21:07:41.530Z,5.70
2018-11-26T21:10:11.786Z,5.70
2018-11-26T21:12:39.947Z,5.53
2018-11-26T21:15:14.482Z,6.45
2018-11-26T21:17:43.897Z,6.47
2018-11-26T21:20:13.904Z,7.10
2018-11-26T21:22:42.024Z,7.80
2018-11-26T21:25:12.108Z,7.87
2018-11-26T21:27:40.224Z,8.40
2018-11-26T21:30:14.494Z,7.00
2018-11-26T21:32:42.595Z,7.40
2018-11-26T21:35:11.695Z,8.47
2018-11-26T21:37:40.786Z,7.17
2018-11-26T21:40:10.113Z,8.40
2018-11-26T21:42:38.204Z,8.00
2018-11-26T21:45:09.631Z,8.17
2018-11-26T21:47:37.759Z,6.75
2018-11-26T21:50:10.280Z,6.30
2018-11-26T21:52:38.404Z,7.00
2018-11-26T21:55:08.888Z,7.33
2018-11-26T21:57:37.051Z,6.83
2018-11-26T22:00:14.146Z,7.20
2018-11-26T22:02:42.255Z,6.73
2018-11-26T22:05:10.712Z,8.53
2018-11-26T22:07:38.824Z,7.97
2018-11-26T22:10:09.648Z,7.13
2018-11-26T22:12:37.756Z,7.05
2018-11-26T22:15:09.359Z,7.13
2018-11-26T22:17:38.052Z,8.45
2018-11-26T22:20:11.183Z,6.70
2018-11-26T22:22:39.288Z,8.73
2018-11-26T22:25:08.763Z,8.33
2018-11-26T22:27:36.895Z,7.53
2018-11-26T22:30:10.302Z,6.27
2018-11-26T22:32:38.403Z,5.53
2018-11-26T22:35:06.987Z,6.83
2018-11-26T22:37:35.079Z,6.60
2018-11-26T22:40:03.211Z,7.47
2018-11-26T22:42:31.344Z,6.93
2018-11-26T22:44:59.477Z,6.55
2018-11-26T22:47:27.587Z,6.90
2018-11-26T22:49:55.679Z,7.87
2018-11-26T22:52:23.783Z,6.40
2018-11-26T22:54:51.859Z,7.53
2018-11-26T22:57:19.971Z,7.00
2018-11-26T22:59:48.071Z,7.27
2018-11-26T23:02:16.203Z,8.17
2018-11-26T23:04:44.291Z,7.83
2018-11-26T23:07:12.485Z,8.33
2018-11-26T23:09:40.567Z,8.30
2018-11-26T23:12:08.678Z,8.33
2018-11-26T23:14:36.811Z,7.13
2018-11-26T23:17:04.983Z,8.03
2018-11-26T23:19:33.103Z,7.87
2018-11-26T23:22:01.185Z,7.40
2018-11-26T23:24:29.290Z,7.80
2018-11-26T23:26:57.407Z,8.30
2018-11-26T23:29:25.498Z,8.07
2018-11-26T23:31:53.615Z,7.50
2018-11-26T23:34:21.716Z,8.20
2018-11-26T23:36:49.833Z,7.40
2018-11-26T23:39:17.959Z,8.03
2018-11-26T23:41:46.087Z,7.70
2018-11-26T23:44:14.202Z,7.60
2018-11-26T23:46:42.319Z,7.53
2018-11-26T23:49:10.415Z,8.43
2018-11-26T23:51:38.523Z,8.80
2018-11-26T23:54:06.636Z,9.17
2018-11-26T23:56:34.763Z,8.07
2018-11-26T23:59:02.887Z,8.55
